Aviation Digital Data Service (ADDS)

Output produced by METARs form (1018 UTC 19 November 2017)
found at http://aviationweather.gov/adds/metars/
 
KAEX 190953Z 34007KT 10SM CLR 08/01 A3020 RMK AO2 SLP230 T00780011